createdAt,value
2023-05-23T04:00:49.399Z,19.20
2023-05-23T04:03:17.878Z,19.10
2023-05-23T04:05:46.079Z,19.00
2023-05-23T04:08:13.913Z,18.90
2023-05-23T04:10:41.631Z,18.90
2023-05-23T04:13:09.530Z,18.80
2023-05-23T04:15:37.299Z,18.80
2023-05-23T04:20:35.481Z,18.80
2023-05-23T04:23:03.373Z,18.90
2023-05-23T04:25:31.232Z,18.80
2023-05-23T04:27:59.764Z,18.70
2023-05-23T04:32:59.990Z,18.70
2023-05-23T04:35:29.293Z,18.60
2023-05-23T04:37:57.316Z,18.60
2023-05-23T04:40:25.122Z,18.60
2023-05-23T04:42:52.908Z,18.50
2023-05-23T04:45:20.757Z,18.50
2023-05-23T04:47:48.763Z,18.50
2023-05-23T04:50:16.703Z,18.50
2023-05-23T04:52:46.936Z,18.40
2023-05-23T04:55:14.784Z,18.30
2023-05-23T05:00:12.808Z,18.20
2023-05-23T05:02:40.797Z,18.20
2023-05-23T05:05:09.413Z,18.10
2023-05-23T05:07:37.238Z,18.10
2023-05-23T05:10:07.430Z,18.10
2023-05-23T05:12:35.360Z,18.20
2023-05-23T05:15:04.666Z,18.20
2023-05-23T05:17:36.828Z,18.20
2023-05-23T05:20:08.449Z,18.10
2023-05-23T05:22:36.923Z,18.10
2023-05-23T05:25:07.296Z,18.10
2023-05-23T05:27:35.347Z,18.10
2023-05-23T05:30:05.082Z,18.10
2023-05-23T05:32:33.633Z,18.10
2023-05-23T05:35:01.636Z,18.10
2023-05-23T05:37:29.527Z,18.00
2023-05-23T05:39:59.006Z,17.90
2023-05-23T05:44:56.526Z,17.80
2023-05-23T05:49:52.550Z,17.80
2023-05-23T05:52:20.468Z,17.90
2023-05-23T05:54:48.225Z,18.00
2023-05-23T05:57:16.115Z,18.00
2023-05-23T05:59:45.216Z,18.00
2023-05-23T06:02:13.102Z,18.10
2023-05-23T06:04:40.963Z,18.10
2023-05-23T06:07:09.340Z,18.20
2023-05-23T06:09:37.224Z,18.30
2023-05-23T06:12:05.221Z,18.30
2023-05-23T06:14:32.983Z,18.40
2023-05-23T06:17:02.486Z,18.50
2023-05-23T06:19:30.322Z,18.50
2023-05-23T06:21:58.159Z,18.50
2023-05-23T06:24:25.952Z,18.50
2023-05-23T06:26:53.722Z,18.60
2023-05-23T06:29:21.615Z,18.60
2023-05-23T06:31:49.641Z,18.60
2023-05-23T06:34:19.038Z,18.70
2023-05-23T06:36:48.290Z,18.70
2023-05-23T06:39:16.251Z,18.70
2023-05-23T06:41:44.541Z,18.70
2023-05-23T06:44:12.356Z,18.80
2023-05-23T06:46:40.627Z,18.80
2023-05-23T06:49:14.702Z,18.80
2023-05-23T06:51:44.154Z,18.80
2023-05-23T06:54:12.292Z,18.80
2023-05-23T06:56:40.320Z,18.80
2023-05-23T06:59:08.105Z,18.90
2023-05-23T07:01:36.042Z,18.90
2023-05-23T07:04:03.851Z,19.00
2023-05-23T07:06:32.679Z,19.10
2023-05-23T07:09:01.842Z,19.10
2023-05-23T07:11:29.699Z,19.20
2023-05-23T07:13:57.527Z,19.20
2023-05-23T07:16:25.369Z,19.30
2023-05-23T07:23:49.964Z,19.60
2023-05-23T07:26:19.157Z,19.60
2023-05-23T07:31:15.168Z,19.80
2023-05-23T07:33:42.966Z,19.90
2023-05-23T07:36:11.370Z,19.90
2023-05-23T07:38:39.207Z,19.90
2023-05-23T07:41:11.870Z,19.90
2023-05-23T07:43:41.923Z,19.90
2023-05-23T07:46:10.003Z,19.90
2023-05-23T07:48:37.891Z,20.00
2023-05-23T07:51:06.048Z,20.00
2023-05-23T07:53:34.877Z,19.90
2023-05-23T07:56:02.803Z,20.00
2023-05-23T07:58:30.608Z,20.00
2023-05-23T08:00:59.880Z,20.00
2023-05-23T08:03:27.742Z,19.90
2023-05-23T08:05:56.018Z,19.80
2023-05-23T08:10:52.036Z,19.90
2023-05-23T08:13:19.918Z,19.90
2023-05-23T08:15:47.717Z,19.90
2023-05-23T08:18:18.235Z,19.90
2023-05-23T08:20:46.128Z,19.90
2023-05-23T08:23:14.334Z,20.00
2023-05-23T08:25:42.132Z,20.00
2023-05-23T08:28:10.018Z,20.20
2023-05-23T08:33:07.124Z,20.10
2023-05-23T08:35:36.825Z,20.20
2023-05-23T08:38:07.750Z,20.20
2023-05-23T08:40:36.836Z,20.30
2023-05-23T08:48:03.753Z,20.30
2023-05-23T08:50:32.039Z,20.30
2023-05-23T08:53:01.270Z,20.30
2023-05-23T08:55:30.508Z,20.30
2023-05-23T08:58:00.407Z,20.30
2023-05-23T09:00:29.240Z,20.30
2023-05-23T09:02:58.467Z,20.40
2023-05-23T09:05:27.933Z,20.50
2023-05-23T09:10:29.862Z,20.40
2023-05-23T09:12:58.319Z,20.40
2023-05-23T09:15:27.295Z,20.30
2023-05-23T09:18:00.403Z,20.30
2023-05-23T09:22:57.655Z,20.20
2023-05-23T09:25:26.860Z,20.20
2023-05-23T09:27:56.533Z,20.20
2023-05-23T09:33:05.375Z,20.30
2023-05-23T09:35:33.967Z,20.30
2023-05-23T09:40:34.563Z,20.30
2023-05-23T09:43:07.476Z,20.30
2023-05-23T09:45:36.067Z,20.30
2023-05-23T09:48:04.172Z,20.30
2023-05-23T09:50:34.148Z,20.40
2023-05-23T09:53:02.391Z,20.40
2023-05-23T09:58:01.383Z,20.40
2023-05-23T10:03:08.512Z,20.40
2023-05-23T10:05:39.049Z,20.30
2023-05-23T10:08:12.073Z,20.40
2023-05-23T10:11:34.493Z,20.50
2023-05-23T10:14:07.747Z,20.40
2023-05-23T10:16:42.920Z,20.40
2023-05-23T10:19:19.648Z,20.40
2023-05-23T10:21:52.015Z,20.20
2023-05-23T10:24:20.685Z,20.20
2023-05-23T10:26:49.798Z,20.20
2023-05-23T10:29:19.004Z,20.30
2023-05-23T10:31:47.580Z,20.30
2023-05-23T10:34:25.762Z,20.40
2023-05-23T10:37:01.054Z,20.50
2023-05-23T10:39:37.474Z,20.60
2023-05-23T10:42:12.762Z,20.60
2023-05-23T10:44:42.058Z,20.60
2023-05-23T10:47:10.060Z,20.70
2023-05-23T10:49:45.906Z,20.70
2023-05-23T10:52:14.999Z,20.70
2023-05-23T10:54:45.163Z,20.60
2023-05-23T10:57:16.934Z,20.50
2023-05-23T10:59:47.764Z,20.40
2023-05-23T11:02:17.147Z,20.30
2023-05-23T11:04:45.804Z,20.30
2023-05-23T11:07:33.114Z,20.20
2023-05-23T11:10:11.755Z,20.10
2023-05-23T11:12:42.355Z,20.10
2023-05-23T11:15:26.671Z,20.10
2023-05-23T11:17:56.120Z,20.10
2023-05-23T11:20:28.283Z,20.10
2023-05-23T11:23:00.364Z,20.10
2023-05-23T11:25:42.310Z,20.10
2023-05-23T11:28:10.570Z,20.20
2023-05-23T11:30:40.514Z,20.20
2023-05-23T11:33:13.437Z,20.20
2023-05-23T11:35:42.480Z,20.10
2023-05-23T11:38:11.321Z,20.10
2023-05-23T11:40:41.567Z,20.20
2023-05-23T11:43:11.426Z,20.30
2023-05-23T11:45:41.750Z,20.40
2023-05-23T11:48:11.696Z,20.50
2023-05-23T11:50:47.177Z,17.60
2023-05-23T11:53:17.457Z,20.60
2023-05-23T11:55:53.184Z,20.70
2023-05-23T11:58:22.330Z,20.80
2023-05-23T12:00:53.760Z,20.90
2023-05-23T12:03:23.427Z,20.90
2023-05-23T12:05:51.575Z,20.90
2023-05-23T12:13:19.930Z,21.00
2023-05-23T12:15:48.038Z,21.10
2023-05-23T12:18:20.868Z,21.00
2023-05-23T12:20:50.566Z,21.10
2023-05-23T12:23:22.322Z,21.10
2023-05-23T12:25:54.368Z,21.10
2023-05-23T12:28:22.940Z,21.00
2023-05-23T12:30:51.300Z,21.00
2023-05-23T12:33:21.567Z,21.10
2023-05-23T12:35:49.528Z,21.10
2023-05-23T12:38:17.984Z,21.00
2023-05-23T12:40:45.857Z,21.10
2023-05-23T12:43:16.346Z,21.20
2023-05-23T12:45:44.319Z,21.20
2023-05-23T12:48:12.788Z,21.20
2023-05-23T12:50:42.235Z,21.10
2023-05-23T12:53:10.312Z,21.10
2023-05-23T12:55:38.338Z,21.10
2023-05-23T12:58:06.550Z,21.00
2023-05-23T13:00:34.557Z,21.00
2023-05-23T13:03:02.518Z,21.00
2023-05-23T13:05:30.473Z,20.90
2023-05-23T13:08:00.226Z,20.90
2023-05-23T13:10:30.935Z,20.80
2023-05-23T13:12:59.863Z,20.60
2023-05-23T13:15:27.782Z,20.50
2023-05-23T13:20:30.151Z,20.50
2023-05-23T13:23:00.936Z,20.40
2023-05-23T13:25:29.057Z,20.40
2023-05-23T13:30:26.357Z,20.20
2023-05-23T13:32:54.260Z,20.10
2023-05-23T13:35:22.256Z,20.20
2023-05-23T13:37:50.615Z,20.20
2023-05-23T13:40:21.808Z,20.30
2023-05-23T13:42:51.814Z,20.50
2023-05-23T13:45:22.454Z,20.70
2023-05-23T13:47:50.508Z,20.90
2023-05-23T13:50:18.928Z,20.90
2023-05-23T13:52:49.276Z,20.90
2023-05-23T13:55:19.543Z,21.00
2023-05-23T13:57:47.526Z,21.10
2023-05-23T14:00:17.423Z,21.20
2023-05-23T14:02:45.297Z,21.20
2023-05-23T14:05:13.230Z,21.10
2023-05-23T14:12:47.086Z,21.00
2023-05-23T14:15:15.096Z,21.10
2023-05-23T14:17:45.137Z,21.10
2023-05-23T14:22:44.519Z,21.10
2023-05-23T14:27:41.497Z,21.10
2023-05-23T14:30:12.796Z,21.00
2023-05-23T14:32:44.137Z,21.00
2023-05-23T14:35:12.822Z,21.00
2023-05-23T14:37:41.084Z,21.00
2023-05-23T14:40:20.750Z,20.90
2023-05-23T14:45:20.930Z,20.70
2023-05-23T14:47:48.931Z,20.70
2023-05-23T14:50:17.495Z,20.60
2023-05-23T14:52:45.473Z,20.60
2023-05-23T14:55:13.326Z,20.50
2023-05-23T14:57:41.246Z,20.40
2023-05-23T15:02:39.906Z,20.30
2023-05-23T15:05:08.696Z,20.30
2023-05-23T15:07:38.758Z,20.30
2023-05-23T15:10:09.344Z,20.20
2023-05-23T15:15:06.570Z,20.20
2023-05-23T15:17:35.180Z,20.20
2023-05-23T15:20:07.073Z,20.20
2023-05-23T15:25:11.729Z,20.20
2023-05-23T15:27:39.812Z,20.10
2023-05-23T15:30:09.069Z,20.10
2023-05-23T15:32:37.056Z,20.10
2023-05-23T15:35:11.352Z,20.20
2023-05-23T15:37:39.218Z,20.20
2023-05-23T15:40:08.161Z,20.30
2023-05-23T15:42:36.650Z,20.50
2023-05-23T15:47:33.326Z,20.90
2023-05-23T15:50:01.366Z,20.90
2023-05-23T15:52:30.784Z,20.90
2023-05-23T15:54:58.808Z,21.00
2023-05-23T15:57:26.707Z,21.10
2023-05-23T16:02:22.808Z,21.30
2023-05-23T16:09:48.680Z,21.50
2023-05-23T16:12:16.878Z,21.70
2023-05-23T16:17:13.029Z,21.60
2023-05-23T16:19:41.211Z,21.50
2023-05-23T16:27:07.228Z,21.50
2023-05-23T16:32:03.450Z,21.60
2023-05-23T16:34:32.416Z,21.80
2023-05-23T16:37:02.048Z,22.00
2023-05-23T16:39:29.991Z,22.10
2023-05-23T16:42:00.301Z,22.30
2023-05-23T16:44:30.016Z,22.50
2023-05-23T16:54:22.765Z,22.50
2023-05-23T16:56:50.696Z,22.50
2023-05-23T16:59:18.671Z,22.30
2023-05-23T17:01:48.030Z,22.10
2023-05-23T17:09:17.735Z,22.20
2023-05-23T17:11:45.524Z,22.40
2023-05-23T17:14:13.329Z,22.40
2023-05-23T17:19:10.780Z,22.50
2023-05-23T17:24:07.078Z,22.40
2023-05-23T17:26:34.996Z,22.50
2023-05-23T17:31:31.456Z,22.40
2023-05-23T17:33:59.511Z,22.40
2023-05-23T17:36:28.666Z,22.40
2023-05-23T17:38:56.763Z,22.10
2023-05-23T17:41:24.688Z,21.60
2023-05-23T17:43:52.522Z,21.50
2023-05-23T17:46:20.477Z,21.50
2023-05-23T17:51:16.955Z,21.40
2023-05-23T17:53:46.072Z,21.40
2023-05-23T17:56:13.967Z,21.50
2023-05-23T17:58:44.136Z,21.40
2023-05-23T18:01:13.656Z,21.30
2023-05-23T18:03:42.060Z,21.10
2023-05-23T18:06:10.221Z,21.10
2023-05-23T18:08:38.285Z,20.90
2023-05-23T18:11:07.673Z,20.80
2023-05-23T18:13:35.697Z,20.40
2023-05-23T18:18:32.382Z,19.80
2023-05-23T18:25:57.678Z,19.10
2023-05-23T18:28:27.034Z,19.00
2023-05-23T18:30:54.805Z,19.00
2023-05-23T18:33:22.759Z,19.00
2023-05-23T18:35:51.547Z,18.80
2023-05-23T18:38:19.402Z,18.60
2023-05-23T18:43:17.742Z,18.30
2023-05-23T18:45:46.995Z,18.10
2023-05-23T18:48:14.914Z,18.00
2023-05-23T18:50:42.961Z,18.00
2023-05-23T18:53:11.051Z,17.80
2023-05-23T18:55:38.835Z,17.70
2023-05-23T19:00:34.887Z,17.60
2023-05-23T19:03:04.787Z,17.50
2023-05-23T19:05:32.697Z,17.50
2023-05-23T19:08:00.534Z,17.40
2023-05-23T19:10:28.380Z,17.40
2023-05-23T19:12:56.190Z,17.40
2023-05-23T19:15:24.281Z,17.40
2023-05-23T19:17:52.138Z,17.40
2023-05-23T19:20:21.974Z,17.40
2023-05-23T19:22:51.968Z,17.30
2023-05-23T19:25:20.559Z,17.40
2023-05-23T19:30:16.808Z,17.30
2023-05-23T19:32:44.701Z,17.20
2023-05-23T19:35:15.603Z,17.20
2023-05-23T19:37:46.339Z,17.20
2023-05-23T19:40:14.530Z,17.20
2023-05-23T19:45:11.908Z,17.10
2023-05-23T19:47:39.728Z,17.10
2023-05-23T19:50:09.488Z,17.10
2023-05-23T19:52:37.542Z,17.10
2023-05-23T19:55:07.645Z,17.10
2023-05-23T19:57:36.238Z,17.00
2023-05-23T20:00:05.750Z,17.00
2023-05-23T20:02:33.948Z,17.00
2023-05-23T20:05:02.170Z,17.00
2023-05-23T20:07:29.954Z,16.90
2023-05-23T20:12:29.475Z,16.90
2023-05-23T20:14:57.421Z,16.80
2023-05-23T20:17:25.428Z,16.80
2023-05-23T20:19:53.509Z,16.70
2023-05-23T20:22:21.393Z,16.70
2023-05-23T20:24:49.275Z,16.60
2023-05-23T20:27:17.090Z,16.60
2023-05-23T20:32:15.329Z,16.60
2023-05-23T20:34:43.122Z,16.60
2023-05-23T20:37:13.547Z,16.50
2023-05-23T20:39:42.234Z,16.40
2023-05-23T20:42:10.589Z,16.50
2023-05-23T20:44:38.793Z,16.40
2023-05-23T20:47:11.359Z,16.40
2023-05-23T20:49:42.209Z,16.40
2023-05-23T20:52:10.313Z,16.30
2023-05-23T20:54:38.152Z,16.30
2023-05-23T20:57:06.410Z,16.30
2023-05-23T20:59:34.364Z,16.20
2023-05-23T21:02:02.429Z,16.20
2023-05-23T21:04:31.739Z,16.20
2023-05-23T21:07:01.270Z,16.20
2023-05-23T21:09:29.047Z,16.10
2023-05-23T21:11:57.372Z,16.10
2023-05-23T21:14:25.276Z,16.00
2023-05-23T21:19:26.486Z,16.00
2023-05-23T21:21:56.181Z,15.90
2023-05-23T21:24:25.307Z,15.90
2023-05-23T21:26:53.210Z,15.80
2023-05-23T21:29:21.069Z,15.80
2023-05-23T21:34:23.721Z,15.70
2023-05-23T21:36:52.341Z,15.60
2023-05-23T21:41:49.837Z,15.70
2023-05-23T21:44:18.861Z,15.60
2023-05-23T21:49:15.584Z,15.60
2023-05-23T21:51:44.108Z,15.60
2023-05-23T21:54:12.132Z,15.60
2023-05-23T21:56:41.461Z,15.60
2023-05-23T21:59:09.943Z,15.60
2023-05-23T22:01:37.837Z,15.60
2023-05-23T22:04:05.807Z,15.60
2023-05-23T22:09:01.983Z,15.50
2023-05-23T22:11:33.764Z,15.50
2023-05-23T22:14:03.157Z,15.50
2023-05-23T22:16:32.867Z,15.50
2023-05-23T22:19:02.014Z,15.50
2023-05-23T22:21:30.145Z,15.50
2023-05-23T22:23:58.584Z,15.50
2023-05-23T22:26:26.393Z,15.50
2023-05-23T22:28:54.328Z,15.50
2023-05-23T22:31:24.180Z,15.40
2023-05-23T22:33:52.243Z,15.50
2023-05-23T22:36:20.091Z,15.50
2023-05-23T22:41:16.002Z,15.50
2023-05-23T22:43:43.959Z,15.50
2023-05-23T22:46:11.883Z,15.50
2023-05-23T22:48:40.980Z,15.50
2023-05-23T22:51:09.687Z,15.50
2023-05-23T22:53:37.497Z,15.50
2023-05-23T22:56:05.690Z,15.40
2023-05-23T22:58:33.656Z,15.30
2023-05-23T23:03:29.783Z,15.10
2023-05-23T23:05:59.295Z,15.00
2023-05-23T23:10:55.622Z,14.70
2023-05-23T23:13:23.454Z,14.70
2023-05-23T23:15:52.509Z,14.60
2023-05-23T23:18:20.330Z,14.60
2023-05-23T23:20:48.342Z,14.60
2023-05-23T23:23:17.734Z,14.60
2023-05-23T23:25:49.917Z,14.50
2023-05-23T23:28:18.160Z,14.40
2023-05-23T23:30:46.050Z,14.30
2023-05-23T23:33:15.861Z,14.30
2023-05-23T23:35:45.319Z,14.30
2023-05-23T23:40:44.382Z,14.30
2023-05-23T23:43:12.400Z,14.30
2023-05-23T23:45:40.283Z,14.30
2023-05-23T23:48:08.169Z,14.30
2023-05-23T23:50:36.050Z,14.30
2023-05-23T23:53:04.453Z,14.20
2023-05-23T23:55:32.218Z,14.20
2023-05-23T23:58:01.652Z,14.10
